Terminal Aerodrome Forecast
Issued by NWS Grand Forks, ND

Home | Current Version | Previous Version | Text Only | Print | Product List | Glossary On
Versions: 1 2 3 4 5 6 7 8 9 10 11 12 13 14 15 16 17 18 19 20 21 22 23 24 25 26 27 28 29 30 31 32 33 34 35 36 37 38 39 40
000
FTUS43 KFGF 200532
TAFFAR
TAF
KFAR 200532Z 2006/2106 01004KT P6SM -RA OVC090
     FM200900 09006KT P6SM VCSH OVC080
     FM201500 12010KT P6SM OVC070
     FM201800 14013G19KT P6SM OVC050
     FM202000 13013G18KT P6SM -SHRA BKN035
     FM210300 12011KT P6SM BKN045=

USA.gov is the U.S. government's official web portal to all federal, state and local government web resources and services.